Terminal Aerodrome Forecast
Issued by NWS Newport/Morehead City, NC

Home | Current Version | Previous Version | Text Only | Print | Product List | Glossary Off
Versions: 1 2 3 4 5 6 7 8 9 10 11 12 13 14

000
FTUS42 KMHX 201120
TAFEWN
TAF
KEWN 201120Z 2012/2112 20007KT 4SM SHRA BR BKN030
     FM201400 20009G14KT 5SM SHRA VCTS BKN030CB
     FM202100 20009G15KT P6SM VCSH BKN050
     FM210700 21007KT P6SM VCSH OVC110=

USA.gov is the U.S. government's official web portal to all federal, state and local government web resources and services.